sensor_id;sensor_type;location;lat;lon;timestamp;P1;durP1;ratioP1;P2;durP2;ratioP2
52274;SDS011;38228;50.940;4.024;2022-11-15T00:00:45;46.97;;;27.83;;
52274;SDS011;38228;50.940;4.024;2022-11-15T00:03:13;46.85;;;28.50;;
52274;SDS011;38228;50.940;4.024;2022-11-15T00:05:40;46.10;;;27.85;;
52274;SDS011;38228;50.940;4.024;2022-11-15T00:08:06;46.90;;;27.67;;
52274;SDS011;38228;50.940;4.024;2022-11-15T00:10:31;49.40;;;28.60;;
52274;SDS011;38228;50.940;4.024;2022-11-15T00:12:57;44.22;;;27.63;;
52274;SDS011;38228;50.940;4.024;2022-11-15T00:15:23;46.55;;;28.45;;
52274;SDS011;38228;50.940;4.024;2022-11-15T00:17:49;41.28;;;27.48;;
52274;SDS011;38228;50.940;4.024;2022-11-15T00:20:15;49.22;;;27.95;;
52274;SDS011;38228;50.940;4.024;2022-11-15T00:22:42;46.85;;;28.02;;
52274;SDS011;38228;50.940;4.024;2022-11-15T00:25:07;43.80;;;27.75;;
52274;SDS011;38228;50.940;4.024;2022-11-15T00:27:33;43.58;;;27.88;;
52274;SDS011;38228;50.940;4.024;2022-11-15T00:29:58;43.25;;;26.55;;
52274;SDS011;38228;50.940;4.024;2022-11-15T00:32:24;43.47;;;25.75;;
52274;SDS011;38228;50.940;4.024;2022-11-15T00:34:50;44.40;;;26.25;;
52274;SDS011;38228;50.940;4.024;2022-11-15T00:37:15;45.03;;;26.27;;
52274;SDS011;38228;50.940;4.024;2022-11-15T00:39:41;38.17;;;25.60;;
52274;SDS011;38228;50.940;4.024;2022-11-15T00:42:06;41.60;;;24.38;;
52274;SDS011;38228;50.940;4.024;2022-11-15T00:44:32;41.50;;;25.17;;
52274;SDS011;38228;50.940;4.024;2022-11-15T00:46:57;43.28;;;25.27;;
52274;SDS011;38228;50.940;4.024;2022-11-15T00:49:23;41.17;;;25.20;;
52274;SDS011;38228;50.940;4.024;2022-11-15T00:51:49;39.65;;;24.65;;
52274;SDS011;38228;50.940;4.024;2022-11-15T00:54:14;42.47;;;25.33;;
52274;SDS011;38228;50.940;4.024;2022-11-15T00:56:40;35.40;;;24.55;;
52274;SDS011;38228;50.940;4.024;2022-11-15T00:59:05;38.63;;;24.45;;
52274;SDS011;38228;50.940;4.024;2022-11-15T01:01:31;36.78;;;24.85;;
52274;SDS011;38228;50.940;4.024;2022-11-15T01:03:57;36.83;;;23.42;;
52274;SDS011;38228;50.940;4.024;2022-11-15T01:06:22;36.70;;;22.63;;
52274;SDS011;38228;50.940;4.024;2022-11-15T01:08:48;37.97;;;23.23;;
52274;SDS011;38228;50.940;4.024;2022-11-15T01:11:13;42.35;;;23.38;;
52274;SDS011;38228;50.940;4.024;2022-11-15T01:13:39;39.50;;;22.73;;
52274;SDS011;38228;50.940;4.024;2022-11-15T01:16:06;36.00;;;22.83;;
52274;SDS011;38228;50.940;4.024;2022-11-15T01:18:36;37.63;;;23.80;;
52274;SDS011;38228;50.940;4.024;2022-11-15T01:21:20;32.17;;;22.42;;
52274;SDS011;38228;50.940;4.024;2022-11-15T01:23:46;40.38;;;24.52;;
52274;SDS011;38228;50.940;4.024;2022-11-15T01:26:13;37.30;;;23.58;;
52274;SDS011;38228;50.940;4.024;2022-11-15T01:28:40;35.33;;;23.65;;
52274;SDS011;38228;50.940;4.024;2022-11-15T01:31:09;41.20;;;24.85;;
52274;SDS011;38228;50.940;4.024;2022-11-15T01:33:37;38.67;;;23.73;;
52274;SDS011;38228;50.940;4.024;2022-11-15T01:36:07;40.53;;;24.30;;
52274;SDS011;38228;50.940;4.024;2022-11-15T01:38:38;34.88;;;23.25;;
52274;SDS011;38228;50.940;4.024;2022-11-15T01:41:04;46.65;;;24.98;;
52274;SDS011;38228;50.940;4.024;2022-11-15T01:43:31;37.85;;;24.35;;
52274;SDS011;38228;50.940;4.024;2022-11-15T01:46:00;42.72;;;24.65;;
52274;SDS011;38228;50.940;4.024;2022-11-15T01:48:57;38.83;;;24.80;;
52274;SDS011;38228;50.940;4.024;2022-11-15T01:51:26;42.63;;;23.92;;
52274;SDS011;38228;50.940;4.024;2022-11-15T01:53:55;38.80;;;23.67;;
52274;SDS011;38228;50.940;4.024;2022-11-15T01:56:27;34.05;;;22.67;;
52274;SDS011;38228;50.940;4.024;2022-11-15T01:58:57;41.03;;;23.13;;
52274;SDS011;38228;50.940;4.024;2022-11-15T02:01:25;37.08;;;22.35;;
52274;SDS011;38228;50.940;4.024;2022-11-15T02:04:03;36.60;;;21.45;;
52274;SDS011;38228;50.940;4.024;2022-11-15T02:06:42;34.97;;;21.80;;
52274;SDS011;38228;50.940;4.024;2022-11-15T02:09:09;34.50;;;22.23;;
52274;SDS011;38228;50.940;4.024;2022-11-15T02:11:36;37.10;;;21.88;;
52274;SDS011;38228;50.940;4.024;2022-11-15T02:14:02;39.25;;;22.85;;
52274;SDS011;38228;50.940;4.024;2022-11-15T02:16:35;35.28;;;21.40;;
52274;SDS011;38228;50.940;4.024;2022-11-15T02:22:09;35.80;;;22.20;;
52274;SDS011;38228;50.940;4.024;2022-11-15T02:32:44;36.15;;;21.77;;
52274;SDS011;38228;50.940;4.024;2022-11-15T02:38:13;35.38;;;20.80;;
52274;SDS011;38228;50.940;4.024;2022-11-15T02:40:53;37.83;;;21.65;;
52274;SDS011;38228;50.940;4.024;2022-11-15T02:43:22;34.58;;;20.05;;
52274;SDS011;38228;50.940;4.024;2022-11-15T02:46:16;33.63;;;20.20;;
52274;SDS011;38228;50.940;4.024;2022-11-15T02:48:47;38.80;;;20.55;;
52274;SDS011;38228;50.940;4.024;2022-11-15T02:51:13;38.53;;;21.17;;
52274;SDS011;38228;50.940;4.024;2022-11-15T02:53:40;40.13;;;20.73;;
52274;SDS011;38228;50.940;4.024;2022-11-15T02:56:07;31.77;;;20.48;;
52274;SDS011;38228;50.940;4.024;2022-11-15T03:04:25;32.72;;;18.63;;
52274;SDS011;38228;50.940;4.024;2022-11-15T03:07:11;34.22;;;19.58;;
52274;SDS011;38228;50.940;4.024;2022-11-15T03:10:08;34.25;;;19.27;;
52274;SDS011;38228;50.940;4.024;2022-11-15T03:12:55;45.55;;;21.38;;
52274;SDS011;38228;50.940;4.024;2022-11-15T03:15:40;35.55;;;20.90;;
52274;SDS011;38228;50.940;4.024;2022-11-15T03:19:13;37.88;;;19.77;;
52274;SDS011;38228;50.940;4.024;2022-11-15T03:21:11;33.20;;;19.50;;
52274;SDS011;38228;50.940;4.024;2022-11-15T03:23:39;34.65;;;19.60;;
52274;SDS011;38228;50.940;4.024;2022-11-15T03:26:07;32.63;;;19.05;;
52274;SDS011;38228;50.940;4.024;2022-11-15T03:28:53;29.10;;;18.50;;
52274;SDS011;38228;50.940;4.024;2022-11-15T03:31:23;30.52;;;18.02;;
52274;SDS011;38228;50.940;4.024;2022-11-15T03:34:14;28.45;;;16.77;;
52274;SDS011;38228;50.940;4.024;2022-11-15T03:36:52;26.60;;;16.95;;
52274;SDS011;38228;50.940;4.024;2022-11-15T03:39:18;29.65;;;17.60;;
52274;SDS011;38228;50.940;4.024;2022-11-15T03:41:55;28.42;;;16.02;;
52274;SDS011;38228;50.940;4.024;2022-11-15T03:44:45;30.67;;;15.52;;
52274;SDS011;38228;50.940;4.024;2022-11-15T03:47:27;28.60;;;15.10;;
52274;SDS011;38228;50.940;4.024;2022-11-15T03:50:17;23.52;;;13.75;;
52274;SDS011;38228;50.940;4.024;2022-11-15T03:52:45;25.05;;;13.15;;
52274;SDS011;38228;50.940;4.024;2022-11-15T03:55:13;25.70;;;13.57;;
52274;SDS011;38228;50.940;4.024;2022-11-15T03:57:41;22.23;;;13.07;;
52274;SDS011;38228;50.940;4.024;2022-11-15T04:00:08;28.27;;;13.07;;
52274;SDS011;38228;50.940;4.024;2022-11-15T04:02:34;28.48;;;12.35;;
52274;SDS011;38228;50.940;4.024;2022-11-15T04:04:59;26.08;;;12.98;;
52274;SDS011;38228;50.940;4.024;2022-11-15T04:07:25;21.70;;;12.05;;
52274;SDS011;38228;50.940;4.024;2022-11-15T04:09:51;24.90;;;12.40;;
52274;SDS011;38228;50.940;4.024;2022-11-15T04:12:32;25.40;;;12.70;;
52274;SDS011;38228;50.940;4.024;2022-11-15T04:15:00;21.95;;;11.30;;
52274;SDS011;38228;50.940;4.024;2022-11-15T04:17:35;22.13;;;12.23;;
52274;SDS011;38228;50.940;4.024;2022-11-15T04:20:15;20.48;;;11.25;;
52274;SDS011;38228;50.940;4.024;2022-11-15T04:23:11;21.17;;;10.73;;
52274;SDS011;38228;50.940;4.024;2022-11-15T04:25:58;19.52;;;11.02;;
52274;SDS011;38228;50.940;4.024;2022-11-15T04:28:26;25.95;;;10.68;;
52274;SDS011;38228;50.940;4.024;2022-11-15T04:30:52;22.27;;;11.00;;
52274;SDS011;38228;50.940;4.024;2022-11-15T04:33:17;23.10;;;11.38;;
52274;SDS011;38228;50.940;4.024;2022-11-15T04:35:43;24.30;;;10.98;;
52274;SDS011;38228;50.940;4.024;2022-11-15T04:38:29;19.55;;;10.50;;
52274;SDS011;38228;50.940;4.024;2022-11-15T04:40:55;25.85;;;11.52;;
52274;SDS011;38228;50.940;4.024;2022-11-15T04:43:20;18.90;;;11.35;;
52274;SDS011;38228;50.940;4.024;2022-11-15T04:45:46;22.23;;;11.18;;
52274;SDS011;38228;50.940;4.024;2022-11-15T04:48:11;24.38;;;10.40;;
52274;SDS011;38228;50.940;4.024;2022-11-15T04:50:37;16.73;;;9.55;;
52274;SDS011;38228;50.940;4.024;2022-11-15T04:53:03;17.58;;;10.10;;
52274;SDS011;38228;50.940;4.024;2022-11-15T04:55:28;19.15;;;10.50;;
52274;SDS011;38228;50.940;4.024;2022-11-15T04:57:57;20.23;;;10.23;;
52274;SDS011;38228;50.940;4.024;2022-11-15T05:00:27;18.25;;;8.90;;
52274;SDS011;38228;50.940;4.024;2022-11-15T05:02:54;24.02;;;10.10;;
52274;SDS011;38228;50.940;4.024;2022-11-15T05:05:39;19.55;;;9.07;;
52274;SDS011;38228;50.940;4.024;2022-11-15T05:08:05;19.13;;;8.85;;
52274;SDS011;38228;50.940;4.024;2022-11-15T05:10:31;23.05;;;8.32;;
52274;SDS011;38228;50.940;4.024;2022-11-15T05:12:56;20.88;;;8.73;;
52274;SDS011;38228;50.940;4.024;2022-11-15T05:15:22;17.42;;;8.38;;
52274;SDS011;38228;50.940;4.024;2022-11-15T05:17:47;16.38;;;8.10;;
52274;SDS011;38228;50.940;4.024;2022-11-15T05:20:13;13.73;;;7.68;;
52274;SDS011;38228;50.940;4.024;2022-11-15T05:22:39;22.33;;;7.43;;
52274;SDS011;38228;50.940;4.024;2022-11-15T05:25:05;19.17;;;7.50;;
52274;SDS011;38228;50.940;4.024;2022-11-15T05:27:31;15.40;;;8.15;;
52274;SDS011;38228;50.940;4.024;2022-11-15T05:29:57;16.70;;;7.25;;
52274;SDS011;38228;50.940;4.024;2022-11-15T05:32:23;13.52;;;7.47;;
52274;SDS011;38228;50.940;4.024;2022-11-15T05:34:49;17.95;;;7.15;;
52274;SDS011;38228;50.940;4.024;2022-11-15T05:37:15;15.90;;;7.22;;
52274;SDS011;38228;50.940;4.024;2022-11-15T05:39:42;18.67;;;7.30;;
52274;SDS011;38228;50.940;4.024;2022-11-15T05:42:16;17.70;;;5.93;;
52274;SDS011;38228;50.940;4.024;2022-11-15T05:44:44;13.13;;;5.78;;
52274;SDS011;38228;50.940;4.024;2022-11-15T05:47:16;10.70;;;5.40;;
52274;SDS011;38228;50.940;4.024;2022-11-15T05:49:45;16.33;;;5.70;;
52274;SDS011;38228;50.940;4.024;2022-11-15T05:52:13;15.77;;;5.57;;
52274;SDS011;38228;50.940;4.024;2022-11-15T05:54:41;15.90;;;5.38;;
52274;SDS011;38228;50.940;4.024;2022-11-15T05:57:08;9.63;;;5.15;;
52274;SDS011;38228;50.940;4.024;2022-11-15T05:59:34;11.75;;;5.97;;
52274;SDS011;38228;50.940;4.024;2022-11-15T06:02:00;13.35;;;4.85;;
52274;SDS011;38228;50.940;4.024;2022-11-15T06:04:26;12.27;;;5.25;;
52274;SDS011;38228;50.940;4.024;2022-11-15T06:06:51;12.55;;;5.30;;
52274;SDS011;38228;50.940;4.024;2022-11-15T06:09:17;12.93;;;5.40;;
52274;SDS011;38228;50.940;4.024;2022-11-15T06:11:43;9.90;;;5.57;;
52274;SDS011;38228;50.940;4.024;2022-11-15T06:14:08;14.40;;;5.47;;
52274;SDS011;38228;50.940;4.024;2022-11-15T06:16:34;13.20;;;5.10;;
52274;SDS011;38228;50.940;4.024;2022-11-15T06:18:59;11.68;;;5.28;;
52274;SDS011;38228;50.940;4.024;2022-11-15T06:21:25;14.13;;;6.00;;
52274;SDS011;38228;50.940;4.024;2022-11-15T06:23:53;9.93;;;5.32;;
52274;SDS011;38228;50.940;4.024;2022-11-15T06:26:18;11.98;;;5.55;;
52274;SDS011;38228;50.940;4.024;2022-11-15T06:28:44;13.00;;;6.13;;
52274;SDS011;38228;50.940;4.024;2022-11-15T06:31:10;11.20;;;6.40;;
52274;SDS011;38228;50.940;4.024;2022-11-15T06:33:36;12.20;;;6.18;;
52274;SDS011;38228;50.940;4.024;2022-11-15T06:36:04;13.88;;;5.88;;
52274;SDS011;38228;50.940;4.024;2022-11-15T06:38:33;13.90;;;6.10;;
52274;SDS011;38228;50.940;4.024;2022-11-15T06:41:03;12.07;;;6.30;;
52274;SDS011;38228;50.940;4.024;2022-11-15T06:43:30;15.05;;;7.22;;
52274;SDS011;38228;50.940;4.024;2022-11-15T06:45:57;15.32;;;7.30;;
52274;SDS011;38228;50.940;4.024;2022-11-15T06:48:24;12.18;;;7.32;;
52274;SDS011;38228;50.940;4.024;2022-11-15T06:50:51;18.13;;;7.40;;
52274;SDS011;38228;50.940;4.024;2022-11-15T06:53:17;14.35;;;6.95;;
52274;SDS011;38228;50.940;4.024;2022-11-15T06:55:43;18.20;;;7.25;;
52274;SDS011;38228;50.940;4.024;2022-11-15T06:58:09;18.15;;;7.50;;
52274;SDS011;38228;50.940;4.024;2022-11-15T07:00:38;17.15;;;8.18;;
52274;SDS011;38228;50.940;4.024;2022-11-15T07:03:03;17.50;;;8.00;;
52274;SDS011;38228;50.940;4.024;2022-11-15T07:05:29;18.25;;;9.73;;
52274;SDS011;38228;50.940;4.024;2022-11-15T07:07:55;20.52;;;7.25;;
52274;SDS011;38228;50.940;4.024;2022-11-15T07:10:22;14.45;;;6.85;;
52274;SDS011;38228;50.940;4.024;2022-11-15T07:12:49;17.08;;;7.28;;
52274;SDS011;38228;50.940;4.024;2022-11-15T07:15:20;16.50;;;7.50;;
52274;SDS011;38228;50.940;4.024;2022-11-15T07:17:48;18.42;;;7.85;;
52274;SDS011;38228;50.940;4.024;2022-11-15T07:20:14;20.70;;;8.05;;
52274;SDS011;38228;50.940;4.024;2022-11-15T07:22:40;18.88;;;8.38;;
52274;SDS011;38228;50.940;4.024;2022-11-15T07:25:07;18.20;;;9.35;;
52274;SDS011;38228;50.940;4.024;2022-11-15T07:27:34;16.05;;;8.55;;
52274;SDS011;38228;50.940;4.024;2022-11-15T07:29:59;17.15;;;8.48;;
52274;SDS011;38228;50.940;4.024;2022-11-15T07:32:25;17.17;;;9.18;;
52274;SDS011;38228;50.940;4.024;2022-11-15T07:34:51;18.85;;;8.65;;
52274;SDS011;38228;50.940;4.024;2022-11-15T07:37:17;19.48;;;9.27;;
52274;SDS011;38228;50.940;4.024;2022-11-15T07:39:43;19.63;;;9.85;;
52274;SDS011;38228;50.940;4.024;2022-11-15T07:42:09;20.67;;;9.60;;
52274;SDS011;38228;50.940;4.024;2022-11-15T07:44:53;27.15;;;9.93;;
52274;SDS011;38228;50.940;4.024;2022-11-15T07:47:19;21.75;;;8.57;;
52274;SDS011;38228;50.940;4.024;2022-11-15T07:49:45;24.25;;;7.97;;
52274;SDS011;38228;50.940;4.024;2022-11-15T07:52:11;13.73;;;7.15;;
52274;SDS011;38228;50.940;4.024;2022-11-15T07:54:37;14.82;;;6.90;;
52274;SDS011;38228;50.940;4.024;2022-11-15T07:57:04;14.35;;;6.20;;
52274;SDS011;38228;50.940;4.024;2022-11-15T07:59:30;14.30;;;5.95;;
52274;SDS011;38228;50.940;4.024;2022-11-15T08:01:56;12.65;;;5.40;;
52274;SDS011;38228;50.940;4.024;2022-11-15T08:04:22;11.93;;;5.10;;
52274;SDS011;38228;50.940;4.024;2022-11-15T08:06:47;11.00;;;4.82;;
52274;SDS011;38228;50.940;4.024;2022-11-15T08:09:13;12.25;;;4.05;;
52274;SDS011;38228;50.940;4.024;2022-11-15T08:11:39;25.65;;;5.53;;
52274;SDS011;38228;50.940;4.024;2022-11-15T08:14:04;70.35;;;9.88;;
52274;SDS011;38228;50.940;4.024;2022-11-15T08:16:30;11.65;;;4.13;;
52274;SDS011;38228;50.940;4.024;2022-11-15T08:18:55;12.35;;;4.30;;
52274;SDS011;38228;50.940;4.024;2022-11-15T08:21:21;10.40;;;3.53;;
52274;SDS011;38228;50.940;4.024;2022-11-15T08:23:48;11.32;;;3.20;;
52274;SDS011;38228;50.940;4.024;2022-11-15T08:26:14;9.93;;;3.10;;
52274;SDS011;38228;50.940;4.024;2022-11-15T08:28:39;12.45;;;3.17;;
52274;SDS011;38228;50.940;4.024;2022-11-15T08:31:06;5.75;;;2.58;;
52274;SDS011;38228;50.940;4.024;2022-11-15T08:33:32;12.88;;;2.60;;
52274;SDS011;38228;50.940;4.024;2022-11-15T08:36:00;7.90;;;2.58;;
52274;SDS011;38228;50.940;4.024;2022-11-15T08:38:26;8.93;;;2.30;;
52274;SDS011;38228;50.940;4.024;2022-11-15T08:41:02;9.85;;;2.58;;
52274;SDS011;38228;50.940;4.024;2022-11-15T08:43:30;15.40;;;3.05;;
52274;SDS011;38228;50.940;4.024;2022-11-15T08:45:57;11.23;;;2.35;;
52274;SDS011;38228;50.940;4.024;2022-11-15T08:48:23;8.73;;;2.55;;
52274;SDS011;38228;50.940;4.024;2022-11-15T08:50:52;12.35;;;2.40;;
52274;SDS011;38228;50.940;4.024;2022-11-15T08:53:21;8.73;;;2.25;;
52274;SDS011;38228;50.940;4.024;2022-11-15T08:55:47;7.88;;;2.17;;
52274;SDS011;38228;50.940;4.024;2022-11-15T08:58:13;8.57;;;2.45;;
52274;SDS011;38228;50.940;4.024;2022-11-15T09:00:39;12.35;;;2.30;;
52274;SDS011;38228;50.940;4.024;2022-11-15T09:03:05;8.45;;;1.90;;
52274;SDS011;38228;50.940;4.024;2022-11-15T09:05:32;7.60;;;1.90;;
52274;SDS011;38228;50.940;4.024;2022-11-15T09:08:00;6.93;;;2.10;;
52274;SDS011;38228;50.940;4.024;2022-11-15T09:10:26;8.95;;;1.95;;
52274;SDS011;38228;50.940;4.024;2022-11-15T09:12:51;9.65;;;1.98;;
52274;SDS011;38228;50.940;4.024;2022-11-15T09:15:17;9.95;;;2.15;;
52274;SDS011;38228;50.940;4.024;2022-11-15T09:17:44;9.73;;;1.55;;
52274;SDS011;38228;50.940;4.024;2022-11-15T09:20:10;9.27;;;1.38;;
52274;SDS011;38228;50.940;4.024;2022-11-15T09:22:36;8.00;;;1.98;;
52274;SDS011;38228;50.940;4.024;2022-11-15T09:25:03;12.25;;;2.15;;
52274;SDS011;38228;50.940;4.024;2022-11-15T09:27:29;9.27;;;1.70;;
52274;SDS011;38228;50.940;4.024;2022-11-15T09:29:55;8.88;;;1.92;;
52274;SDS011;38228;50.940;4.024;2022-11-15T09:32:21;9.88;;;1.90;;
52274;SDS011;38228;50.940;4.024;2022-11-15T09:34:48;7.85;;;1.40;;
52274;SDS011;38228;50.940;4.024;2022-11-15T09:37:16;12.85;;;1.80;;
52274;SDS011;38228;50.940;4.024;2022-11-15T09:39:42;6.95;;;1.52;;
52274;SDS011;38228;50.940;4.024;2022-11-15T09:45:20;8.20;;;2.03;;
52274;SDS011;38228;50.940;4.024;2022-11-15T09:53:04;11.60;;;2.03;;
52274;SDS011;38228;50.940;4.024;2022-11-15T09:55:35;11.13;;;1.77;;
52274;SDS011;38228;50.940;4.024;2022-11-15T09:58:16;9.70;;;1.90;;
52274;SDS011;38228;50.940;4.024;2022-11-15T10:00:52;8.57;;;1.60;;
52274;SDS011;38228;50.940;4.024;2022-11-15T10:03:34;12.57;;;2.03;;
52274;SDS011;38228;50.940;4.024;2022-11-15T10:06:08;9.85;;;1.77;;
52274;SDS011;38228;50.940;4.024;2022-11-15T10:11:27;11.27;;;1.30;;
52274;SDS011;38228;50.940;4.024;2022-11-15T10:13:59;13.20;;;2.15;;
52274;SDS011;38228;50.940;4.024;2022-11-15T10:24:39;11.20;;;2.17;;
52274;SDS011;38228;50.940;4.024;2022-11-15T10:27:11;9.82;;;1.70;;
52274;SDS011;38228;50.940;4.024;2022-11-15T10:29:48;18.00;;;5.57;;
52274;SDS011;38228;50.940;4.024;2022-11-15T10:32:16;15.00;;;2.55;;
52274;SDS011;38228;50.940;4.024;2022-11-15T10:34:43;10.30;;;2.30;;
52274;SDS011;38228;50.940;4.024;2022-11-15T10:37:10;10.60;;;2.03;;
52274;SDS011;38228;50.940;4.024;2022-11-15T10:39:36;9.10;;;1.83;;
52274;SDS011;38228;50.940;4.024;2022-11-15T10:42:25;13.38;;;4.05;;
52274;SDS011;38228;50.940;4.024;2022-11-15T10:44:53;13.00;;;2.22;;
52274;SDS011;38228;50.940;4.024;2022-11-15T10:50:04;11.25;;;1.90;;
52274;SDS011;38228;50.940;4.024;2022-11-15T10:52:33;9.65;;;1.70;;
52274;SDS011;38228;50.940;4.024;2022-11-15T10:57:47;10.30;;;1.58;;
52274;SDS011;38228;50.940;4.024;2022-11-15T11:07:58;11.20;;;1.60;;
52274;SDS011;38228;50.940;4.024;2022-11-15T11:10:26;11.95;;;1.50;;
52274;SDS011;38228;50.940;4.024;2022-11-15T11:12:52;9.27;;;1.50;;
52274;SDS011;38228;50.940;4.024;2022-11-15T11:15:18;10.63;;;1.55;;
52274;SDS011;38228;50.940;4.024;2022-11-15T11:17:57;10.32;;;2.03;;
52274;SDS011;38228;50.940;4.024;2022-11-15T11:20:41;11.90;;;1.58;;
52274;SDS011;38228;50.940;4.024;2022-11-15T11:32:13;10.85;;;1.70;;
52274;SDS011;38228;50.940;4.024;2022-11-15T11:37:52;7.63;;;1.42;;
52274;SDS011;38228;50.940;4.024;2022-11-15T11:43:51;7.97;;;1.63;;
52274;SDS011;38228;50.940;4.024;2022-11-15T11:49:39;11.05;;;1.70;;
52274;SDS011;38228;50.940;4.024;2022-11-15T11:57:37;11.43;;;1.85;;
52274;SDS011;38228;50.940;4.024;2022-11-15T12:02:41;8.90;;;1.30;;
52274;SDS011;38228;50.940;4.024;2022-11-15T12:05:21;8.25;;;1.45;;
52274;SDS011;38228;50.940;4.024;2022-11-15T12:07:52;10.27;;;1.48;;
52274;SDS011;38228;50.940;4.024;2022-11-15T12:10:26;6.40;;;1.92;;
52274;SDS011;38228;50.940;4.024;2022-11-15T12:12:56;5.75;;;1.35;;
52274;SDS011;38228;50.940;4.024;2022-11-15T12:15:31;9.63;;;1.33;;
52274;SDS011;38228;50.940;4.024;2022-11-15T12:18:03;9.35;;;1.85;;
52274;SDS011;38228;50.940;4.024;2022-11-15T12:20:33;9.88;;;1.65;;
52274;SDS011;38228;50.940;4.024;2022-11-15T12:23:04;7.53;;;1.77;;
52274;SDS011;38228;50.940;4.024;2022-11-15T12:25:53;10.88;;;1.60;;
52274;SDS011;38228;50.940;4.024;2022-11-15T12:33:46;6.22;;;1.30;;
52274;SDS011;38228;50.940;4.024;2022-11-15T12:41:35;7.32;;;1.42;;
52274;SDS011;38228;50.940;4.024;2022-11-15T12:44:01;9.27;;;1.70;;
52274;SDS011;38228;50.940;4.024;2022-11-15T12:48:55;9.68;;;1.70;;
52274;SDS011;38228;50.940;4.024;2022-11-15T12:52:07;5.05;;;1.30;;
52274;SDS011;38228;50.940;4.024;2022-11-15T13:17:45;6.25;;;1.50;;
52274;SDS011;38228;50.940;4.024;2022-11-15T13:22:41;8.95;;;1.60;;
52274;SDS011;38228;50.940;4.024;2022-11-15T13:27:48;2.97;;;1.10;;
52274;SDS011;38228;50.940;4.024;2022-11-15T13:30:27;5.82;;;1.35;;
52274;SDS011;38228;50.940;4.024;2022-11-15T13:32:54;3.75;;;1.27;;
52274;SDS011;38228;50.940;4.024;2022-11-15T13:35:21;5.03;;;1.70;;
52274;SDS011;38228;50.940;4.024;2022-11-15T13:37:48;6.53;;;1.48;;
52274;SDS011;38228;50.940;4.024;2022-11-15T13:42:52;5.43;;;1.35;;
52274;SDS011;38228;50.940;4.024;2022-11-15T13:45:19;6.35;;;1.58;;
52274;SDS011;38228;50.940;4.024;2022-11-15T13:47:47;3.88;;;1.40;;
52274;SDS011;38228;50.940;4.024;2022-11-15T13:50:17;4.13;;;1.20;;
52274;SDS011;38228;50.940;4.024;2022-11-15T13:52:45;7.53;;;1.25;;
52274;SDS011;38228;50.940;4.024;2022-11-15T13:55:14;4.15;;;1.20;;
52274;SDS011;38228;50.940;4.024;2022-11-15T14:00:25;6.13;;;1.20;;
52274;SDS011;38228;50.940;4.024;2022-11-15T14:02:55;3.63;;;1.38;;
52274;SDS011;38228;50.940;4.024;2022-11-15T14:05:30;5.85;;;1.50;;
52274;SDS011;38228;50.940;4.024;2022-11-15T14:07:56;5.30;;;1.15;;
52274;SDS011;38228;50.940;4.024;2022-11-15T14:10:24;3.55;;;1.40;;
52274;SDS011;38228;50.940;4.024;2022-11-15T14:12:51;10.77;;;1.55;;
52274;SDS011;38228;50.940;4.024;2022-11-15T14:15:19;6.53;;;1.63;;
52274;SDS011;38228;50.940;4.024;2022-11-15T14:17:53;7.50;;;1.65;;
52274;SDS011;38228;50.940;4.024;2022-11-15T14:20:39;6.57;;;1.48;;
52274;SDS011;38228;50.940;4.024;2022-11-15T14:23:26;7.32;;;1.70;;
52274;SDS011;38228;50.940;4.024;2022-11-15T14:25:52;6.53;;;2.28;;
52274;SDS011;38228;50.940;4.024;2022-11-15T14:30:47;3.17;;;1.67;;
52274;SDS011;38228;50.940;4.024;2022-11-15T14:33:25;5.72;;;2.00;;
52274;SDS011;38228;50.940;4.024;2022-11-15T14:35:54;4.60;;;1.52;;
52274;SDS011;38228;50.940;4.024;2022-11-15T14:38:22;5.43;;;2.10;;
52274;SDS011;38228;50.940;4.024;2022-11-15T14:40:48;5.38;;;1.80;;
52274;SDS011;38228;50.940;4.024;2022-11-15T14:43:14;7.30;;;2.30;;
52274;SDS011;38228;50.940;4.024;2022-11-15T14:45:40;6.50;;;1.85;;
52274;SDS011;38228;50.940;4.024;2022-11-15T14:48:06;11.23;;;5.07;;
52274;SDS011;38228;50.940;4.024;2022-11-15T14:50:32;5.25;;;2.55;;
52274;SDS011;38228;50.940;4.024;2022-11-15T14:52:59;6.80;;;2.47;;
52274;SDS011;38228;50.940;4.024;2022-11-15T14:55:29;5.95;;;2.20;;
52274;SDS011;38228;50.940;4.024;2022-11-15T14:57:58;7.80;;;2.53;;
52274;SDS011;38228;50.940;4.024;2022-11-15T15:00:24;8.52;;;2.72;;
52274;SDS011;38228;50.940;4.024;2022-11-15T15:02:52;7.82;;;2.83;;
52274;SDS011;38228;50.940;4.024;2022-11-15T15:05:29;7.10;;;2.80;;
52274;SDS011;38228;50.940;4.024;2022-11-15T15:07:57;8.55;;;2.88;;
52274;SDS011;38228;50.940;4.024;2022-11-15T15:10:23;6.00;;;4.45;;
52274;SDS011;38228;50.940;4.024;2022-11-15T15:12:50;10.07;;;4.43;;
52274;SDS011;38228;50.940;4.024;2022-11-15T15:15:20;10.13;;;3.55;;
52274;SDS011;38228;50.940;4.024;2022-11-15T15:17:48;8.07;;;3.17;;
52274;SDS011;38228;50.940;4.024;2022-11-15T15:20:14;6.35;;;3.58;;
52274;SDS011;38228;50.940;4.024;2022-11-15T15:22:40;8.93;;;4.28;;
52274;SDS011;38228;50.940;4.024;2022-11-15T15:27:55;9.02;;;3.92;;
52274;SDS011;38228;50.940;4.024;2022-11-15T15:30:24;7.60;;;3.55;;
52274;SDS011;38228;50.940;4.024;2022-11-15T15:32:52;8.30;;;3.00;;
52274;SDS011;38228;50.940;4.024;2022-11-15T15:35:18;9.70;;;3.90;;
52274;SDS011;38228;50.940;4.024;2022-11-15T15:37:45;6.28;;;3.20;;
52274;SDS011;38228;50.940;4.024;2022-11-15T15:42:47;7.85;;;3.65;;
52274;SDS011;38228;50.940;4.024;2022-11-15T15:45:14;4.85;;;3.47;;
52274;SDS011;38228;50.940;4.024;2022-11-15T15:47:40;8.23;;;3.35;;
52274;SDS011;38228;50.940;4.024;2022-11-15T15:52:55;6.20;;;3.60;;
52274;SDS011;38228;50.940;4.024;2022-11-15T15:55:22;7.93;;;3.35;;
52274;SDS011;38228;50.940;4.024;2022-11-15T15:57:49;7.45;;;3.50;;
52274;SDS011;38228;50.940;4.024;2022-11-15T16:00:15;6.10;;;3.75;;
52274;SDS011;38228;50.940;4.024;2022-11-15T16:02:41;6.80;;;3.60;;
52274;SDS011;38228;50.940;4.024;2022-11-15T16:05:08;8.32;;;4.00;;
52274;SDS011;38228;50.940;4.024;2022-11-15T16:07:34;7.97;;;3.90;;
52274;SDS011;38228;50.940;4.024;2022-11-15T16:10:01;7.20;;;3.80;;
52274;SDS011;38228;50.940;4.024;2022-11-15T16:12:38;5.20;;;4.03;;
52274;SDS011;38228;50.940;4.024;2022-11-15T16:15:04;7.38;;;4.90;;
52274;SDS011;38228;50.940;4.024;2022-11-15T16:17:30;5.88;;;3.95;;
52274;SDS011;38228;50.940;4.024;2022-11-15T16:19:59;6.30;;;3.78;;
52274;SDS011;38228;50.940;4.024;2022-11-15T16:22:25;8.27;;;3.70;;
52274;SDS011;38228;50.940;4.024;2022-11-15T16:24:50;7.97;;;4.03;;
52274;SDS011;38228;50.940;4.024;2022-11-15T16:27:17;6.07;;;3.67;;
52274;SDS011;38228;50.940;4.024;2022-11-15T16:29:46;7.18;;;3.83;;
52274;SDS011;38228;50.940;4.024;2022-11-15T16:32:12;7.13;;;4.18;;
52274;SDS011;38228;50.940;4.024;2022-11-15T16:34:39;6.47;;;4.22;;
52274;SDS011;38228;50.940;4.024;2022-11-15T16:37:05;6.10;;;4.35;;
52274;SDS011;38228;50.940;4.024;2022-11-15T16:39:33;7.07;;;4.28;;
52274;SDS011;38228;50.940;4.024;2022-11-15T16:41:59;5.72;;;3.95;;
52274;SDS011;38228;50.940;4.024;2022-11-15T16:44:25;7.38;;;4.63;;
52274;SDS011;38228;50.940;4.024;2022-11-15T16:46:51;9.07;;;4.60;;
52274;SDS011;38228;50.940;4.024;2022-11-15T16:49:18;13.50;;;8.23;;
52274;SDS011;38228;50.940;4.024;2022-11-15T16:51:45;8.75;;;4.40;;
52274;SDS011;38228;50.940;4.024;2022-11-15T16:54:11;5.40;;;4.43;;
52274;SDS011;38228;50.940;4.024;2022-11-15T16:56:37;5.50;;;3.83;;
52274;SDS011;38228;50.940;4.024;2022-11-15T16:59:03;3.92;;;3.45;;
52274;SDS011;38228;50.940;4.024;2022-11-15T17:01:30;8.25;;;4.53;;
52274;SDS011;38228;50.940;4.024;2022-11-15T17:03:59;5.90;;;3.80;;